Carnival Glory — 3FPS9 — position and weather

sailwx.info

Track history (hours):
 
Tides and Currents Weather Stations Pressure Air Temp Water Temp Dewpoint Dewpoint Depression Visibility Wind Speed Wind Dir Waves Ship Positions

Carnival Glory

Operator: Carnival Cruise Lines

Last reported at 2017-Apr-23 00:47 UTC. Time now 2017-Apr-23 15:44 UTC.
Position N 25°04' W 080°04'.

Type: Passenger vessel. MMSI: 357659000.

Date/timePositionNaut miles runAvg speedWind from/ knotsBaromVisibWave heightAir tempDewpointWater temp
2017-Apr-23 00:47N 25°04' W 080°04'515.9
2017-Apr-23 00:27N 25°09' W 080°02'715.8
2017-Apr-23 00:00N 25°15' W 079°59'815.5
2017-Apr-22 23:30N 25°23' W 079°56'815.7
2017-Apr-22 23:00N 25°30' W 079°56'815.3
2017-Apr-22 22:30N 25°38' W 079°56'815.4
2017-Apr-22 22:00N 25°44' W 080°02'510.2
2017-Apr-22 21:30N 25°46' W 080°07'3 5.5
2017-Apr-22 21:00N 25°47' W 080°10'0 0.0
2017-Apr-22 20:30N 25°47' W 080°10'0 0.0
2017-Apr-22 19:59N 25°47' W 080°10'0 0.0
2017-Apr-22 19:29N 25°47' W 080°10'0 0.0
2017-Apr-22 18:59N 25°47' W 080°10'0 0.0
2017-Apr-22 18:29N 25°47' W 080°10'0 0.0
2017-Apr-22 17:59N 25°47' W 080°10'0 0.0
2017-Apr-22 17:29N 25°47' W 080°10'0 0.0
2017-Apr-22 16:59N 25°47' W 080°10'0 0.0
2017-Apr-22 16:29N 25°47' W 080°10'0 0.0
2017-Apr-22 15:59N 25°47' W 080°10'0 0.0
2017-Apr-22 15:29N 25°47' W 080°10'0 0.0
2017-Apr-22 14:59N 25°47' W 080°10'0 0.0
2017-Apr-22 14:29N 25°47' W 080°10'0 0.0
2017-Apr-22 13:29N 25°47' W 080°10'0 0.0
2017-Apr-22 12:59N 25°47' W 080°10'0 0.0
2017-Apr-22 12:20N 25°47' W 080°10'0 0.0
2017-Apr-22 11:50N 25°47' W 080°10'0 0.0
2017-Apr-22 11:26N 25°47' W 080°10'0 0.0
2017-Apr-22 10:59N 25°47' W 080°10'0 0.0
2017-Apr-22 10:29N 25°47' W 080°10'0 0.0
2017-Apr-22 09:59N 25°47' W 080°10'0 0.0
2017-Apr-22 09:29N 25°47' W 080°10'0 0.0
2017-Apr-22 08:59N 25°47' W 080°10'1 1.4
2017-Apr-22 08:31N 25°47' W 080°11'3 5.0
2017-Apr-22 08:01N 25°46' W 080°08'611.7
2017-Apr-22 07:31N 25°47' W 080°02'5 9.1
2017-Apr-22 07:01N 25°49' W 079°58'5 9.8
2017-Apr-22 06:31N 25°52' W 079°53'510.8
2017-Apr-22 06:01N 25°55' W 079°48'511.0
2017-Apr-22 05:31N 25°57' W 079°43'611.1
2017-Apr-22 05:01N 26°00' W 079°38'611.2
2017-Apr-22 04:31N 26°03' W 079°32'713.9
2017-Apr-22 04:00N 26°07' W 079°26'816.4
2017-Apr-22 03:30N 26°13' W 079°19'7216.0
2017-Apr-21 23:00N 26°00' W 078°00'49614.2 110 / 171016.910.8
2017-Apr-20 12:00N 21°24' W 070°30'3819.0 060 / 201015.910.8 26.023.125.0
2017-Apr-20 10:00N 21°06' W 069°54'23219.3 060 / 201016.910.8 25.022.024.0
2017-Apr-19 22:00N 18°48' W 066°36'98 4.4 070 / 221015.910.8 26.023.125.0
2017-Apr-18 23:23N 18°14' W 064°59'3 8.3
2017-Apr-18 23:00N 18°16' W 064°56'54 3.9
2017-Apr-18 09:00N 18°48' W 065°42'17217.2 070 / 331014.910.8 25.020.524.0
2017-Apr-17 23:00N 20°18' W 068°18'47318.9 070 / 331017.910.8 24.019.422.0
2017-Apr-16 22:00N 24°12' W 075°42'2964247.0 060 / 251019.910.8 27.024.125.0
2017-Apr-16 10:00S 25°12' W 076°00'3093313.5 060 / 301021.910.8 23.019.922.0
2017-Apr-16 00:08N 26°15' W 079°11'418.4
2017-Apr-15 23:56N 26°13' W 079°14'818.5
2017-Apr-15 23:30N 26°09' W 079°22'918.8
2017-Apr-15 23:00N 26°04' W 079°31'918.2
2017-Apr-15 22:30N 25°59' W 079°39'1019.1
2017-Apr-15 22:00N 25°55' W 079°49'1019.3
2017-Apr-15 21:30N 25°49' W 079°58'714.7
2017-Apr-15 21:00N 25°46' W 080°05'5 9.0
2017-Apr-15 20:30N 25°46' W 080°10'1 1.1
2017-Apr-15 20:00N 25°47' W 080°10'0 0.0
2017-Apr-15 19:30N 25°47' W 080°10'0 0.0
2017-Apr-15 19:00N 25°47' W 080°10'0 0.0
2017-Apr-15 18:27N 25°47' W 080°10'0 0.0
2017-Apr-15 18:00N 25°47' W 080°10'0 0.0
2017-Apr-15 17:30N 25°47' W 080°10'0 0.0
2017-Apr-15 17:00N 25°47' W 080°10'0 0.0
2017-Apr-15 16:30N 25°47' W 080°10'0 0.0
2017-Apr-15 15:54N 25°47' W 080°10'0 0.0
2017-Apr-15 15:27N 25°47' W 080°10'0 0.0
2017-Apr-15 14:54N 25°47' W 080°10'0 0.0
2017-Apr-15 14:30N 25°47' W 080°10'0 0.0
2017-Apr-15 13:30N 25°47' W 080°10'0 0.0
2017-Apr-15 12:57N 25°47' W 080°10'0 0.0
2017-Apr-15 12:27N 25°47' W 080°10'0 0.0
2017-Apr-15 12:00N 25°47' W 080°10'0 0.0
2017-Apr-15 11:30N 25°47' W 080°10'0 0.0
2017-Apr-15 11:00N 25°47' W 080°10'0 0.0
2017-Apr-15 10:30N 25°47' W 080°10'0 0.0
2017-Apr-15 10:00N 25°47' W 080°10'0 0.0
2017-Apr-15 09:30N 25°47' W 080°10'0 0.0
2017-Apr-15 09:00N 25°47' W 080°10'1 1.8
2017-Apr-15 08:31N 25°47' W 080°11'3 6.0
2017-Apr-15 08:00N 25°46' W 080°08'510.5
2017-Apr-15 07:30N 25°46' W 080°02'5 9.3
2017-Apr-15 07:00N 25°43' W 079°59'612.5
2017-Apr-15 06:30N 25°37' W 079°56'816.2
2017-Apr-15 06:00N 25°29' W 079°55'918.0
2017-Apr-15 05:30N 25°20' W 079°56'917.2
2017-Apr-15 05:00N 25°12' W 079°58'11914.8
2017-Apr-14 21:00N 23°42' W 081°24'20816.0 060 / 221016.910.8 25.022.0
2017-Apr-14 08:00N 22°24' W 084°54'13516.9 100 / 221016.910.8 25.023.525.0
2017-Apr-14 00:00N 20°48' W 086°36'1916.0 100 / 121016.910.8 26.023.125.0
2017-Apr-13 22:48N 20°39' W 086°54'516.1
2017-Apr-13 22:31N 20°35' W 086°57'611.7
2017-Apr-13 22:00N 20°30' W 086°59'1 2.5
2017-Apr-13 21:30N 20°29' W 086°59'0 0.0
2017-Apr-13 21:00N 20°29' W 086°59'0 0.0
2017-Apr-13 20:30N 20°29' W 086°59'0 0.0
2017-Apr-13 20:00N 20°29' W 086°59'0 0.0
2017-Apr-13 19:30N 20°29' W 086°59'0 0.0
2017-Apr-13 18:54N 20°29' W 086°59'0 0.0
2017-Apr-13 18:30N 20°29' W 086°59'0 0.0
2017-Apr-13 18:00N 20°29' W 086°59'0 0.0
2017-Apr-13 17:30N 20°29' W 086°59'0 0.0
2017-Apr-13 17:00N 20°29' W 086°59'0 0.0
2017-Apr-13 16:30N 20°29' W 086°59'0 0.0
2017-Apr-13 16:00N 20°29' W 086°59'0 0.0
2017-Apr-13 15:30N 20°29' W 086°59'0 0.0
2017-Apr-13 15:00N 20°29' W 086°59'0 0.0
2017-Apr-13 14:30N 20°29' W 086°59'0 0.0
2017-Apr-13 13:18N 20°29' W 086°59'0 0.0
2017-Apr-13 12:57N 20°29' W 086°59'0 0.0
2017-Apr-13 12:27N 20°29' W 086°59'0 0.0
2017-Apr-13 12:00N 20°29' W 086°59'0 0.0
2017-Apr-13 11:31N 20°29' W 086°59'2 3.2
2017-Apr-13 11:01N 20°29' W 087°00'4 8.3
2017-Apr-13 10:30N 20°27' W 087°04'3915.4
2017-Apr-13 08:00N 19°48' W 087°06'   070 / 161016.910.8 25.022.024.0
Track history (hours):
 
Tides and Currents Weather Stations Pressure Air Temp Water Temp Dewpoint Dewpoint Depression Visibility Wind Speed Wind Dir Waves Ship Positions

Carnival Glory

Operator: Carnival Cruise Lines

Last reported at 2017-Apr-23 00:47 UTC. Time now 2017-Apr-23 15:44 UTC.
Position N 25°04' W 080°04'.

Type: Passenger vessel. MMSI: 357659000.

Date/timePositionNaut miles runAvg speedWind from/ knotsBaromVisibWave heightAir tempDewpointWater temp
2017-Apr-23 00:47N 25°04' W 080°04'515.9
2017-Apr-23 00:27N 25°09' W 080°02'715.8
2017-Apr-23 00:00N 25°15' W 079°59'815.5
2017-Apr-22 23:30N 25°23' W 079°56'815.7
2017-Apr-22 23:00N 25°30' W 079°56'815.3
2017-Apr-22 22:30N 25°38' W 079°56'815.4
2017-Apr-22 22:00N 25°44' W 080°02'510.2
2017-Apr-22 21:30N 25°46' W 080°07'3 5.5
2017-Apr-22 21:00N 25°47' W 080°10'0 0.0
2017-Apr-22 20:30N 25°47' W 080°10'0 0.0
2017-Apr-22 19:59N 25°47' W 080°10'0 0.0
2017-Apr-22 19:29N 25°47' W 080°10'0 0.0
2017-Apr-22 18:59N 25°47' W 080°10'0 0.0
2017-Apr-22 18:29N 25°47' W 080°10'0 0.0
2017-Apr-22 17:59N 25°47' W 080°10'0 0.0
2017-Apr-22 17:29N 25°47' W 080°10'0 0.0
2017-Apr-22 16:59N 25°47' W 080°10'0 0.0
2017-Apr-22 16:29N 25°47' W 080°10'0 0.0
2017-Apr-22 15:59N 25°47' W 080°10'0 0.0
2017-Apr-22 15:29N 25°47' W 080°10'0 0.0
2017-Apr-22 14:59N 25°47' W 080°10'0 0.0
2017-Apr-22 14:29N 25°47' W 080°10'0 0.0
2017-Apr-22 13:29N 25°47' W 080°10'0 0.0
2017-Apr-22 12:59N 25°47' W 080°10'0 0.0
2017-Apr-22 12:20N 25°47' W 080°10'0 0.0
2017-Apr-22 11:50N 25°47' W 080°10'0 0.0
2017-Apr-22 11:26N 25°47' W 080°10'0 0.0
2017-Apr-22 10:59N 25°47' W 080°10'0 0.0
2017-Apr-22 10:29N 25°47' W 080°10'0 0.0
2017-Apr-22 09:59N 25°47' W 080°10'0 0.0
2017-Apr-22 09:29N 25°47' W 080°10'0 0.0
2017-Apr-22 08:59N 25°47' W 080°10'1 1.4
2017-Apr-22 08:31N 25°47' W 080°11'3 5.0
2017-Apr-22 08:01N 25°46' W 080°08'611.7
2017-Apr-22 07:31N 25°47' W 080°02'5 9.1
2017-Apr-22 07:01N 25°49' W 079°58'5 9.8
2017-Apr-22 06:31N 25°52' W 079°53'510.8
2017-Apr-22 06:01N 25°55' W 079°48'511.0
2017-Apr-22 05:31N 25°57' W 079°43'611.1
2017-Apr-22 05:01N 26°00' W 079°38'611.2
2017-Apr-22 04:31N 26°03' W 079°32'713.9
2017-Apr-22 04:00N 26°07' W 079°26'816.4
2017-Apr-22 03:30N 26°13' W 079°19'7216.0
2017-Apr-21 23:00N 26°00' W 078°00'49614.2 110 / 171016.910.8
2017-Apr-20 12:00N 21°24' W 070°30'3819.0 060 / 201015.910.8 26.023.125.0
2017-Apr-20 10:00N 21°06' W 069°54'23219.3 060 / 201016.910.8 25.022.024.0
2017-Apr-19 22:00N 18°48' W 066°36'98 4.4 070 / 221015.910.8 26.023.125.0
2017-Apr-18 23:23N 18°14' W 064°59'3 8.3
2017-Apr-18 23:00N 18°16' W 064°56'54 3.9
2017-Apr-18 09:00N 18°48' W 065°42'17217.2 070 / 331014.910.8 25.020.524.0
2017-Apr-17 23:00N 20°18' W 068°18'47318.9 070 / 331017.910.8 24.019.422.0
2017-Apr-16 22:00N 24°12' W 075°42'2964247.0 060 / 251019.910.8 27.024.125.0
2017-Apr-16 10:00S 25°12' W 076°00'3093313.5 060 / 301021.910.8 23.019.922.0
2017-Apr-16 00:08N 26°15' W 079°11'418.4
2017-Apr-15 23:56N 26°13' W 079°14'818.5
2017-Apr-15 23:30N 26°09' W 079°22'918.8
2017-Apr-15 23:00N 26°04' W 079°31'918.2
2017-Apr-15 22:30N 25°59' W 079°39'1019.1
2017-Apr-15 22:00N 25°55' W 079°49'1019.3
2017-Apr-15 21:30N 25°49' W 079°58'714.7
2017-Apr-15 21:00N 25°46' W 080°05'5 9.0
2017-Apr-15 20:30N 25°46' W 080°10'1 1.1
2017-Apr-15 20:00N 25°47' W 080°10'0 0.0
2017-Apr-15 19:30N 25°47' W 080°10'0 0.0
2017-Apr-15 19:00N 25°47' W 080°10'0 0.0
2017-Apr-15 18:27N 25°47' W 080°10'0 0.0
2017-Apr-15 18:00N 25°47' W 080°10'0 0.0
2017-Apr-15 17:30N 25°47' W 080°10'0 0.0
2017-Apr-15 17:00N 25°47' W 080°10'0 0.0
2017-Apr-15 16:30N 25°47' W 080°10'0 0.0
2017-Apr-15 15:54N 25°47' W 080°10'0 0.0
2017-Apr-15 15:27N 25°47' W 080°10'0 0.0
2017-Apr-15 14:54N 25°47' W 080°10'0 0.0
2017-Apr-15 14:30N 25°47' W 080°10'0 0.0
2017-Apr-15 13:30N 25°47' W 080°10'0 0.0
2017-Apr-15 12:57N 25°47' W 080°10'0 0.0
2017-Apr-15 12:27N 25°47' W 080°10'0 0.0
2017-Apr-15 12:00N 25°47' W 080°10'0 0.0
2017-Apr-15 11:30N 25°47' W 080°10'0 0.0
2017-Apr-15 11:00N 25°47' W 080°10'0 0.0
2017-Apr-15 10:30N 25°47' W 080°10'0 0.0
2017-Apr-15 10:00N 25°47' W 080°10'0 0.0
2017-Apr-15 09:30N 25°47' W 080°10'0 0.0
2017-Apr-15 09:00N 25°47' W 080°10'1 1.8
2017-Apr-15 08:31N 25°47' W 080°11'3 6.0
2017-Apr-15 08:00N 25°46' W 080°08'510.5
2017-Apr-15 07:30N 25°46' W 080°02'5 9.3
2017-Apr-15 07:00N 25°43' W 079°59'612.5
2017-Apr-15 06:30N 25°37' W 079°56'816.2
2017-Apr-15 06:00N 25°29' W 079°55'918.0
2017-Apr-15 05:30N 25°20' W 079°56'917.2
2017-Apr-15 05:00N 25°12' W 079°58'11914.8
2017-Apr-14 21:00N 23°42' W 081°24'20816.0 060 / 221016.910.8 25.022.0
2017-Apr-14 08:00N 22°24' W 084°54'13516.9 100 / 221016.910.8 25.023.525.0
2017-Apr-14 00:00N 20°48' W 086°36'1916.0 100 / 121016.910.8 26.023.125.0
2017-Apr-13 22:48N 20°39' W 086°54'516.1
2017-Apr-13 22:31N 20°35' W 086°57'611.7
2017-Apr-13 22:00N 20°30' W 086°59'1 2.5
2017-Apr-13 21:30N 20°29' W 086°59'0 0.0
2017-Apr-13 21:00N 20°29' W 086°59'0 0.0
2017-Apr-13 20:30N 20°29' W 086°59'0 0.0
2017-Apr-13 20:00N 20°29' W 086°59'0 0.0
2017-Apr-13 19:30N 20°29' W 086°59'0 0.0
2017-Apr-13 18:54N 20°29' W 086°59'0 0.0
2017-Apr-13 18:30N 20°29' W 086°59'0 0.0
2017-Apr-13 18:00N 20°29' W 086°59'0 0.0
2017-Apr-13 17:30N 20°29' W 086°59'0 0.0
2017-Apr-13 17:00N 20°29' W 086°59'0 0.0
2017-Apr-13 16:30N 20°29' W 086°59'0 0.0
2017-Apr-13 16:00N 20°29' W 086°59'0 0.0
2017-Apr-13 15:30N 20°29' W 086°59'0 0.0
2017-Apr-13 15:00N 20°29' W 086°59'0 0.0
2017-Apr-13 14:30N 20°29' W 086°59'0 0.0
2017-Apr-13 13:18N 20°29' W 086°59'0 0.0
2017-Apr-13 12:57N 20°29' W 086°59'0 0.0
2017-Apr-13 12:27N 20°29' W 086°59'0 0.0
2017-Apr-13 12:00N 20°29' W 086°59'0 0.0
2017-Apr-13 11:31N 20°29' W 086°59'2 3.2
2017-Apr-13 11:01N 20°29' W 087°00'4 8.3
2017-Apr-13 10:30N 20°27' W 087°04'3915.4
2017-Apr-13 08:00N 19°48' W 087°06'   070 / 161016.910.8 25.022.024.0

Dump ship's entire track history